sensor_id;sensor_type;location;lat;lon;timestamp;pressure;altitude;pressure_sealevel;temperature
5571;BMP180;2808;51.240;6.794;2023-02-28T00:01:21;102498.00;;;1.10
5571;BMP180;2808;51.240;6.794;2023-02-28T00:03:49;102503.00;;;1.10
5571;BMP180;2808;51.240;6.794;2023-02-28T00:06:16;102497.00;;;1.10
5571;BMP180;2808;51.240;6.794;2023-02-28T00:08:44;102498.00;;;1.10
5571;BMP180;2808;51.240;6.794;2023-02-28T00:11:15;102502.00;;;1.10
5571;BMP180;2808;51.240;6.794;2023-02-28T00:13:44;102492.00;;;1.10
5571;BMP180;2808;51.240;6.794;2023-02-28T00:16:15;102500.00;;;1.10
5571;BMP180;2808;51.240;6.794;2023-02-28T00:18:43;102500.00;;;1.10
5571;BMP180;2808;51.240;6.794;2023-02-28T00:21:10;102499.00;;;1.10
5571;BMP180;2808;51.240;6.794;2023-02-28T00:23:38;102500.00;;;1.10
5571;BMP180;2808;51.240;6.794;2023-02-28T00:26:05;102500.00;;;1.20
5571;BMP180;2808;51.240;6.794;2023-02-28T00:28:34;102498.00;;;1.20
5571;BMP180;2808;51.240;6.794;2023-02-28T00:31:02;102495.00;;;1.30
5571;BMP180;2808;51.240;6.794;2023-02-28T00:33:29;102507.00;;;1.30
5571;BMP180;2808;51.240;6.794;2023-02-28T00:36:07;102497.00;;;1.30
5571;BMP180;2808;51.240;6.794;2023-02-28T00:38:35;102503.00;;;1.30
5571;BMP180;2808;51.240;6.794;2023-02-28T00:41:03;102492.00;;;1.30
5571;BMP180;2808;51.240;6.794;2023-02-28T00:43:31;102498.00;;;1.30
5571;BMP180;2808;51.240;6.794;2023-02-28T00:46:01;102499.00;;;1.30
5571;BMP180;2808;51.240;6.794;2023-02-28T00:48:28;102491.00;;;1.40
5571;BMP180;2808;51.240;6.794;2023-02-28T00:50:56;102492.00;;;1.40
5571;BMP180;2808;51.240;6.794;2023-02-28T00:53:23;102495.00;;;1.40
5571;BMP180;2808;51.240;6.794;2023-02-28T00:55:51;102486.00;;;1.40
5571;BMP180;2808;51.240;6.794;2023-02-28T00:58:18;102499.00;;;1.40
5571;BMP180;2808;51.240;6.794;2023-02-28T01:00:46;102487.00;;;1.30
5571;BMP180;2808;51.240;6.794;2023-02-28T01:03:16;102487.00;;;1.30
5571;BMP180;2808;51.240;6.794;2023-02-28T01:05:43;102496.00;;;1.30
5571;BMP180;2808;51.240;6.794;2023-02-28T01:08:11;102493.00;;;1.30
5571;BMP180;2808;51.240;6.794;2023-02-28T01:10:39;102510.00;;;1.20
5571;BMP180;2808;51.240;6.794;2023-02-28T01:13:06;102504.00;;;1.20
5571;BMP180;2808;51.240;6.794;2023-02-28T01:15:34;102503.00;;;1.20
5571;BMP180;2808;51.240;6.794;2023-02-28T01:18:01;102501.00;;;1.10
5571;BMP180;2808;51.240;6.794;2023-02-28T01:20:30;102506.00;;;1.10
5571;BMP180;2808;51.240;6.794;2023-02-28T01:22:58;102500.00;;;1.10
5571;BMP180;2808;51.240;6.794;2023-02-28T01:25:25;102502.00;;;1.10
5571;BMP180;2808;51.240;6.794;2023-02-28T01:27:53;102495.00;;;1.00
5571;BMP180;2808;51.240;6.794;2023-02-28T01:30:20;102493.00;;;1.00
5571;BMP180;2808;51.240;6.794;2023-02-28T01:32:48;102497.00;;;1.00
5571;BMP180;2808;51.240;6.794;2023-02-28T01:35:17;102500.00;;;0.90
5571;BMP180;2808;51.240;6.794;2023-02-28T01:37:46;102500.00;;;0.90
5571;BMP180;2808;51.240;6.794;2023-02-28T01:40:14;102501.00;;;0.80
5571;BMP180;2808;51.240;6.794;2023-02-28T01:42:46;102501.00;;;0.80
5571;BMP180;2808;51.240;6.794;2023-02-28T01:45:31;102501.00;;;0.80
5571;BMP180;2808;51.240;6.794;2023-02-28T01:48:03;102496.00;;;0.70
5571;BMP180;2808;51.240;6.794;2023-02-28T01:50:34;102498.00;;;0.80
5571;BMP180;2808;51.240;6.794;2023-02-28T01:53:10;102494.00;;;0.70
5571;BMP180;2808;51.240;6.794;2023-02-28T01:55:40;102491.00;;;0.70
5571;BMP180;2808;51.240;6.794;2023-02-28T01:58:08;102493.00;;;0.60
5571;BMP180;2808;51.240;6.794;2023-02-28T02:00:36;102486.00;;;0.60
5571;BMP180;2808;51.240;6.794;2023-02-28T02:03:11;102491.00;;;0.60
5571;BMP180;2808;51.240;6.794;2023-02-28T02:05:40;102484.00;;;0.60
5571;BMP180;2808;51.240;6.794;2023-02-28T02:08:19;102485.00;;;0.50
5571;BMP180;2808;51.240;6.794;2023-02-28T02:10:48;102482.00;;;0.40
5571;BMP180;2808;51.240;6.794;2023-02-28T02:13:34;102480.00;;;0.40
5571;BMP180;2808;51.240;6.794;2023-02-28T02:16:11;102499.00;;;0.40
5571;BMP180;2808;51.240;6.794;2023-02-28T02:18:43;102485.00;;;0.30
5571;BMP180;2808;51.240;6.794;2023-02-28T02:24:43;102487.00;;;0.20
5571;BMP180;2808;51.240;6.794;2023-02-28T02:27:24;102480.00;;;0.20
5571;BMP180;2808;51.240;6.794;2023-02-28T02:35:53;102477.00;;;0.10
5571;BMP180;2808;51.240;6.794;2023-02-28T02:38:31;102478.00;;;0.10
5571;BMP180;2808;51.240;6.794;2023-02-28T02:41:06;102468.00;;;0.10
5571;BMP180;2808;51.240;6.794;2023-02-28T02:43:38;102459.00;;;0.00
5571;BMP180;2808;51.240;6.794;2023-02-28T02:46:12;102452.00;;;0.00
5571;BMP180;2808;51.240;6.794;2023-02-28T02:48:43;102447.00;;;0.00
5571;BMP180;2808;51.240;6.794;2023-02-28T02:51:14;102464.00;;;0.00
5571;BMP180;2808;51.240;6.794;2023-02-28T02:53:46;102461.00;;;-0.10
5571;BMP180;2808;51.240;6.794;2023-02-28T02:56:18;102462.00;;;-0.10
5571;BMP180;2808;51.240;6.794;2023-02-28T02:58:47;102463.00;;;-0.20
5571;BMP180;2808;51.240;6.794;2023-02-28T03:01:19;102466.00;;;-0.20
5571;BMP180;2808;51.240;6.794;2023-02-28T03:03:56;102465.00;;;-0.20
5571;BMP180;2808;51.240;6.794;2023-02-28T03:06:26;102464.00;;;-0.20
5571;BMP180;2808;51.240;6.794;2023-02-28T03:08:54;102459.00;;;-0.20
5571;BMP180;2808;51.240;6.794;2023-02-28T03:11:21;102468.00;;;-0.20
5571;BMP180;2808;51.240;6.794;2023-02-28T03:13:58;102460.00;;;-0.30
5571;BMP180;2808;51.240;6.794;2023-02-28T03:16:33;102469.00;;;-0.30
5571;BMP180;2808;51.240;6.794;2023-02-28T03:19:24;102460.00;;;-0.30
5571;BMP180;2808;51.240;6.794;2023-02-28T03:24:59;102460.00;;;-0.40
5571;BMP180;2808;51.240;6.794;2023-02-28T03:27:30;102458.00;;;-0.40
5571;BMP180;2808;51.240;6.794;2023-02-28T03:30:03;102454.00;;;-0.40
5571;BMP180;2808;51.240;6.794;2023-02-28T03:32:35;102442.00;;;-0.40
5571;BMP180;2808;51.240;6.794;2023-02-28T03:35:09;102454.00;;;-0.40
5571;BMP180;2808;51.240;6.794;2023-02-28T03:37:42;102454.00;;;-0.40
5571;BMP180;2808;51.240;6.794;2023-02-28T03:40:13;102454.00;;;-0.30
5571;BMP180;2808;51.240;6.794;2023-02-28T03:42:49;102461.00;;;-0.30
5571;BMP180;2808;51.240;6.794;2023-02-28T03:45:20;102450.00;;;-0.40
5571;BMP180;2808;51.240;6.794;2023-02-28T03:47:52;102453.00;;;-0.40
5571;BMP180;2808;51.240;6.794;2023-02-28T03:50:23;102466.00;;;-0.30
5571;BMP180;2808;51.240;6.794;2023-02-28T03:52:57;102462.00;;;-0.40
5571;BMP180;2808;51.240;6.794;2023-02-28T03:55:29;102464.00;;;-0.40
5571;BMP180;2808;51.240;6.794;2023-02-28T03:58:01;102461.00;;;-0.40
5571;BMP180;2808;51.240;6.794;2023-02-28T04:00:35;102462.00;;;-0.40
5571;BMP180;2808;51.240;6.794;2023-02-28T04:03:04;102465.00;;;-0.40
5571;BMP180;2808;51.240;6.794;2023-02-28T04:05:32;102470.00;;;-0.40
5571;BMP180;2808;51.240;6.794;2023-02-28T04:08:06;102458.00;;;-0.40
5571;BMP180;2808;51.240;6.794;2023-02-28T04:10:34;102461.00;;;-0.40
5571;BMP180;2808;51.240;6.794;2023-02-28T04:13:01;102472.00;;;-0.50
5571;BMP180;2808;51.240;6.794;2023-02-28T04:15:29;102468.00;;;-0.50
5571;BMP180;2808;51.240;6.794;2023-02-28T04:17:58;102468.00;;;-0.50
5571;BMP180;2808;51.240;6.794;2023-02-28T04:20:25;102467.00;;;-0.50
5571;BMP180;2808;51.240;6.794;2023-02-28T04:22:52;102469.00;;;-0.60
5571;BMP180;2808;51.240;6.794;2023-02-28T04:25:21;102471.00;;;-0.60
5571;BMP180;2808;51.240;6.794;2023-02-28T04:27:48;102475.00;;;-0.50
5571;BMP180;2808;51.240;6.794;2023-02-28T04:30:16;102472.00;;;-0.60
5571;BMP180;2808;51.240;6.794;2023-02-28T04:32:44;102476.00;;;-0.60
5571;BMP180;2808;51.240;6.794;2023-02-28T04:35:11;102480.00;;;-0.50
5571;BMP180;2808;51.240;6.794;2023-02-28T04:37:41;102476.00;;;-0.60
5571;BMP180;2808;51.240;6.794;2023-02-28T04:40:10;102479.00;;;-0.60
5571;BMP180;2808;51.240;6.794;2023-02-28T04:42:39;102477.00;;;-0.60
5571;BMP180;2808;51.240;6.794;2023-02-28T04:45:08;102477.00;;;-0.60
5571;BMP180;2808;51.240;6.794;2023-02-28T04:47:36;102483.00;;;-0.60
5571;BMP180;2808;51.240;6.794;2023-02-28T04:50:04;102482.00;;;-0.60
5571;BMP180;2808;51.240;6.794;2023-02-28T04:52:31;102481.00;;;-0.60
5571;BMP180;2808;51.240;6.794;2023-02-28T04:54:59;102483.00;;;-0.60
5571;BMP180;2808;51.240;6.794;2023-02-28T04:57:26;102471.00;;;-0.60
5571;BMP180;2808;51.240;6.794;2023-02-28T04:59:55;102484.00;;;-0.60
5571;BMP180;2808;51.240;6.794;2023-02-28T05:02:22;102484.00;;;-0.60
5571;BMP180;2808;51.240;6.794;2023-02-28T05:04:50;102486.00;;;-0.60
5571;BMP180;2808;51.240;6.794;2023-02-28T05:07:17;102482.00;;;-0.60
5571;BMP180;2808;51.240;6.794;2023-02-28T05:09:45;102482.00;;;-0.50
5571;BMP180;2808;51.240;6.794;2023-02-28T05:12:12;102476.00;;;-0.50
5571;BMP180;2808;51.240;6.794;2023-02-28T05:14:40;102483.00;;;-0.50
5571;BMP180;2808;51.240;6.794;2023-02-28T05:17:09;102490.00;;;-0.50
5571;BMP180;2808;51.240;6.794;2023-02-28T05:19:37;102481.00;;;-0.40
5571;BMP180;2808;51.240;6.794;2023-02-28T05:22:04;102485.00;;;-0.40
5571;BMP180;2808;51.240;6.794;2023-02-28T05:24:34;102480.00;;;-0.40
5571;BMP180;2808;51.240;6.794;2023-02-28T05:27:02;102483.00;;;-0.50
5571;BMP180;2808;51.240;6.794;2023-02-28T05:29:30;102488.00;;;-0.40
5571;BMP180;2808;51.240;6.794;2023-02-28T05:31:58;102482.00;;;-0.50
5571;BMP180;2808;51.240;6.794;2023-02-28T05:34:26;102484.00;;;-0.50
5571;BMP180;2808;51.240;6.794;2023-02-28T05:36:54;102480.00;;;-0.50
5571;BMP180;2808;51.240;6.794;2023-02-28T05:39:24;102492.00;;;-0.60
5571;BMP180;2808;51.240;6.794;2023-02-28T05:41:51;102499.00;;;-0.60
5571;BMP180;2808;51.240;6.794;2023-02-28T05:44:19;102499.00;;;-0.70
5571;BMP180;2808;51.240;6.794;2023-02-28T05:46:46;102487.00;;;-0.70
5571;BMP180;2808;51.240;6.794;2023-02-28T05:49:14;102505.00;;;-0.80
5571;BMP180;2808;51.240;6.794;2023-02-28T05:51:42;102501.00;;;-0.80
5571;BMP180;2808;51.240;6.794;2023-02-28T05:54:10;102508.00;;;-0.90
5571;BMP180;2808;51.240;6.794;2023-02-28T05:56:39;102507.00;;;-0.90
5571;BMP180;2808;51.240;6.794;2023-02-28T05:59:10;102509.00;;;-0.90
5571;BMP180;2808;51.240;6.794;2023-02-28T06:01:39;102514.00;;;-1.00
5571;BMP180;2808;51.240;6.794;2023-02-28T06:04:08;102506.00;;;-1.00
5571;BMP180;2808;51.240;6.794;2023-02-28T06:06:36;102514.00;;;-1.10
5571;BMP180;2808;51.240;6.794;2023-02-28T06:09:09;102509.00;;;-1.10
5571;BMP180;2808;51.240;6.794;2023-02-28T06:11:37;102522.00;;;-1.10
5571;BMP180;2808;51.240;6.794;2023-02-28T06:14:05;102518.00;;;-1.10
5571;BMP180;2808;51.240;6.794;2023-02-28T06:16:34;102519.00;;;-1.00
5571;BMP180;2808;51.240;6.794;2023-02-28T06:19:03;102527.00;;;-1.00
5571;BMP180;2808;51.240;6.794;2023-02-28T06:21:31;102518.00;;;-0.90
5571;BMP180;2808;51.240;6.794;2023-02-28T06:23:59;102531.00;;;-0.90
5571;BMP180;2808;51.240;6.794;2023-02-28T06:26:28;102535.00;;;-0.90
5571;BMP180;2808;51.240;6.794;2023-02-28T06:28:55;102533.00;;;-0.90
5571;BMP180;2808;51.240;6.794;2023-02-28T06:31:23;102536.00;;;-0.90
5571;BMP180;2808;51.240;6.794;2023-02-28T06:33:52;102537.00;;;-0.80
5571;BMP180;2808;51.240;6.794;2023-02-28T06:36:37;102531.00;;;-0.70
5571;BMP180;2808;51.240;6.794;2023-02-28T06:39:15;102536.00;;;-0.50
5571;BMP180;2808;51.240;6.794;2023-02-28T06:41:44;102537.00;;;-0.40
5571;BMP180;2808;51.240;6.794;2023-02-28T06:44:13;102533.00;;;-0.20
5571;BMP180;2808;51.240;6.794;2023-02-28T06:46:41;102540.00;;;-0.10
5571;BMP180;2808;51.240;6.794;2023-02-28T06:49:09;102540.00;;;0.00
5571;BMP180;2808;51.240;6.794;2023-02-28T06:51:37;102548.00;;;0.20
5571;BMP180;2808;51.240;6.794;2023-02-28T06:54:05;102543.00;;;0.30
5571;BMP180;2808;51.240;6.794;2023-02-28T06:56:35;102549.00;;;0.40
5571;BMP180;2808;51.240;6.794;2023-02-28T06:59:05;102559.00;;;0.70
5571;BMP180;2808;51.240;6.794;2023-02-28T07:01:32;102542.00;;;0.80
5571;BMP180;2808;51.240;6.794;2023-02-28T07:04:02;102545.00;;;1.00
5571;BMP180;2808;51.240;6.794;2023-02-28T07:06:29;102546.00;;;1.00
5571;BMP180;2808;51.240;6.794;2023-02-28T07:08:57;102554.00;;;1.10
5571;BMP180;2808;51.240;6.794;2023-02-28T07:11:25;102551.00;;;1.20
5571;BMP180;2808;51.240;6.794;2023-02-28T07:13:53;102550.00;;;1.30
5571;BMP180;2808;51.240;6.794;2023-02-28T07:16:24;102552.00;;;1.40
5571;BMP180;2808;51.240;6.794;2023-02-28T07:18:53;102550.00;;;1.40
5571;BMP180;2808;51.240;6.794;2023-02-28T07:21:21;102556.00;;;1.50
5571;BMP180;2808;51.240;6.794;2023-02-28T07:23:48;102547.00;;;1.60
5571;BMP180;2808;51.240;6.794;2023-02-28T07:26:18;102557.00;;;1.70
5571;BMP180;2808;51.240;6.794;2023-02-28T07:28:47;102555.00;;;2.00
5571;BMP180;2808;51.240;6.794;2023-02-28T07:31:15;102558.00;;;2.00
5571;BMP180;2808;51.240;6.794;2023-02-28T07:33:46;102559.00;;;2.20
5571;BMP180;2808;51.240;6.794;2023-02-28T07:36:15;102563.00;;;2.20
5571;BMP180;2808;51.240;6.794;2023-02-28T07:38:45;102557.00;;;2.20
5571;BMP180;2808;51.240;6.794;2023-02-28T07:41:14;102555.00;;;2.10
5571;BMP180;2808;51.240;6.794;2023-02-28T07:43:42;102555.00;;;2.10
5571;BMP180;2808;51.240;6.794;2023-02-28T07:46:12;102568.00;;;2.20
5571;BMP180;2808;51.240;6.794;2023-02-28T07:48:41;102564.00;;;2.20
5571;BMP180;2808;51.240;6.794;2023-02-28T07:51:10;102563.00;;;2.40
5571;BMP180;2808;51.240;6.794;2023-02-28T07:53:38;102567.00;;;2.30
5571;BMP180;2808;51.240;6.794;2023-02-28T07:56:08;102573.00;;;2.60
5571;BMP180;2808;51.240;6.794;2023-02-28T07:58:37;102570.00;;;2.60
5571;BMP180;2808;51.240;6.794;2023-02-28T08:01:08;102571.00;;;2.80
5571;BMP180;2808;51.240;6.794;2023-02-28T08:03:36;102573.00;;;2.60
5571;BMP180;2808;51.240;6.794;2023-02-28T08:06:15;102572.00;;;3.00
5571;BMP180;2808;51.240;6.794;2023-02-28T08:08:45;102575.00;;;3.10
5571;BMP180;2808;51.240;6.794;2023-02-28T08:11:15;102578.00;;;3.20
5571;BMP180;2808;51.240;6.794;2023-02-28T08:13:43;102582.00;;;3.50
5571;BMP180;2808;51.240;6.794;2023-02-28T08:16:12;102572.00;;;3.40
5571;BMP180;2808;51.240;6.794;2023-02-28T08:18:46;102571.00;;;3.60
5571;BMP180;2808;51.240;6.794;2023-02-28T08:21:15;102575.00;;;3.60
5571;BMP180;2808;51.240;6.794;2023-02-28T08:23:42;102569.00;;;3.70
5571;BMP180;2808;51.240;6.794;2023-02-28T08:26:10;102575.00;;;3.90
5571;BMP180;2808;51.240;6.794;2023-02-28T08:28:37;102579.00;;;4.30
5571;BMP180;2808;51.240;6.794;2023-02-28T08:31:08;102581.00;;;4.20
5571;BMP180;2808;51.240;6.794;2023-02-28T08:33:36;102583.00;;;4.00
5571;BMP180;2808;51.240;6.794;2023-02-28T08:36:06;102582.00;;;4.30
5571;BMP180;2808;51.240;6.794;2023-02-28T08:38:40;102591.00;;;4.30
5571;BMP180;2808;51.240;6.794;2023-02-28T08:41:09;102574.00;;;4.20
5571;BMP180;2808;51.240;6.794;2023-02-28T08:43:38;102579.00;;;4.20
5571;BMP180;2808;51.240;6.794;2023-02-28T08:46:06;102570.00;;;4.70
5571;BMP180;2808;51.240;6.794;2023-02-28T08:48:36;102584.00;;;4.80
5571;BMP180;2808;51.240;6.794;2023-02-28T08:51:06;102579.00;;;4.80
5571;BMP180;2808;51.240;6.794;2023-02-28T08:53:36;102581.00;;;5.10
5571;BMP180;2808;51.240;6.794;2023-02-28T08:56:06;102576.00;;;5.20
5571;BMP180;2808;51.240;6.794;2023-02-28T08:58:34;102585.00;;;5.60
5571;BMP180;2808;51.240;6.794;2023-02-28T09:01:13;102576.00;;;5.40
5571;BMP180;2808;51.240;6.794;2023-02-28T09:03:41;102578.00;;;5.50
5571;BMP180;2808;51.240;6.794;2023-02-28T09:06:13;102572.00;;;5.30
5571;BMP180;2808;51.240;6.794;2023-02-28T09:08:42;102578.00;;;5.30
5571;BMP180;2808;51.240;6.794;2023-02-28T09:11:10;102569.00;;;5.40
5571;BMP180;2808;51.240;6.794;2023-02-28T09:13:40;102572.00;;;5.20
5571;BMP180;2808;51.240;6.794;2023-02-28T09:16:11;102569.00;;;4.90
5571;BMP180;2808;51.240;6.794;2023-02-28T09:18:39;102568.00;;;4.80
5571;BMP180;2808;51.240;6.794;2023-02-28T09:21:08;102564.00;;;5.00
5571;BMP180;2808;51.240;6.794;2023-02-28T09:23:39;102564.00;;;5.30
5571;BMP180;2808;51.240;6.794;2023-02-28T09:26:16;102556.00;;;5.30
5571;BMP180;2808;51.240;6.794;2023-02-28T09:28:45;102564.00;;;5.00
5571;BMP180;2808;51.240;6.794;2023-02-28T09:31:14;102573.00;;;5.20
5571;BMP180;2808;51.240;6.794;2023-02-28T09:33:42;102563.00;;;4.90
5571;BMP180;2808;51.240;6.794;2023-02-28T09:36:09;102564.00;;;5.00
5571;BMP180;2808;51.240;6.794;2023-02-28T09:38:37;102559.00;;;4.60
5571;BMP180;2808;51.240;6.794;2023-02-28T09:41:14;102559.00;;;4.60
5571;BMP180;2808;51.240;6.794;2023-02-28T09:43:45;102559.00;;;4.40
5571;BMP180;2808;51.240;6.794;2023-02-28T09:46:29;102557.00;;;4.40
5571;BMP180;2808;51.240;6.794;2023-02-28T09:49:01;102568.00;;;4.40
5571;BMP180;2808;51.240;6.794;2023-02-28T09:51:36;102557.00;;;4.30
5571;BMP180;2808;51.240;6.794;2023-02-28T09:54:05;102542.00;;;4.40
5571;BMP180;2808;51.240;6.794;2023-02-28T09:56:37;102562.00;;;4.30
5571;BMP180;2808;51.240;6.794;2023-02-28T09:59:13;102566.00;;;4.30
5571;BMP180;2808;51.240;6.794;2023-02-28T10:01:45;102549.00;;;4.50
5571;BMP180;2808;51.240;6.794;2023-02-28T10:04:31;102555.00;;;4.50
5571;BMP180;2808;51.240;6.794;2023-02-28T10:07:06;102557.00;;;4.60
5571;BMP180;2808;51.240;6.794;2023-02-28T10:09:44;102567.00;;;4.50
5571;BMP180;2808;51.240;6.794;2023-02-28T10:12:16;102555.00;;;4.40
5571;BMP180;2808;51.240;6.794;2023-02-28T10:14:47;102561.00;;;4.30
5571;BMP180;2808;51.240;6.794;2023-02-28T10:17:22;102558.00;;;4.30
5571;BMP180;2808;51.240;6.794;2023-02-28T10:19:56;102562.00;;;4.00
5571;BMP180;2808;51.240;6.794;2023-02-28T10:22:29;102567.00;;;3.90
5571;BMP180;2808;51.240;6.794;2023-02-28T10:25:04;102556.00;;;4.00
5571;BMP180;2808;51.240;6.794;2023-02-28T10:27:33;102555.00;;;4.00
5571;BMP180;2808;51.240;6.794;2023-02-28T10:30:02;102553.00;;;3.80
5571;BMP180;2808;51.240;6.794;2023-02-28T10:32:32;102544.00;;;3.80
5571;BMP180;2808;51.240;6.794;2023-02-28T10:35:06;102554.00;;;3.80
5571;BMP180;2808;51.240;6.794;2023-02-28T10:37:42;102555.00;;;3.70
5571;BMP180;2808;51.240;6.794;2023-02-28T10:40:28;102552.00;;;4.00
5571;BMP180;2808;51.240;6.794;2023-02-28T10:42:59;102547.00;;;3.90
5571;BMP180;2808;51.240;6.794;2023-02-28T10:45:28;102547.00;;;4.00
5571;BMP180;2808;51.240;6.794;2023-02-28T10:48:04;102551.00;;;4.10
5571;BMP180;2808;51.240;6.794;2023-02-28T10:50:50;102554.00;;;3.90
5571;BMP180;2808;51.240;6.794;2023-02-28T10:53:31;102568.00;;;3.90
5571;BMP180;2808;51.240;6.794;2023-02-28T10:56:01;102540.00;;;3.80
5571;BMP180;2808;51.240;6.794;2023-02-28T10:58:40;102542.00;;;3.70
5571;BMP180;2808;51.240;6.794;2023-02-28T11:01:14;102535.00;;;3.60
5571;BMP180;2808;51.240;6.794;2023-02-28T11:03:42;102534.00;;;3.40
5571;BMP180;2808;51.240;6.794;2023-02-28T11:06:15;102546.00;;;3.20
5571;BMP180;2808;51.240;6.794;2023-02-28T11:08:49;102548.00;;;3.20
5571;BMP180;2808;51.240;6.794;2023-02-28T11:11:18;102536.00;;;3.00
5571;BMP180;2808;51.240;6.794;2023-02-28T11:13:50;102530.00;;;3.10
5571;BMP180;2808;51.240;6.794;2023-02-28T11:16:19;102530.00;;;3.20
5571;BMP180;2808;51.240;6.794;2023-02-28T11:18:50;102534.00;;;3.20
5571;BMP180;2808;51.240;6.794;2023-02-28T11:21:25;102527.00;;;3.20
5571;BMP180;2808;51.240;6.794;2023-02-28T11:23:57;102533.00;;;3.00
5571;BMP180;2808;51.240;6.794;2023-02-28T11:26:39;102532.00;;;3.10
5571;BMP180;2808;51.240;6.794;2023-02-28T11:29:15;102530.00;;;3.30
5571;BMP180;2808;51.240;6.794;2023-02-28T11:34:58;102532.00;;;3.40
5571;BMP180;2808;51.240;6.794;2023-02-28T11:37:28;102537.00;;;3.40
5571;BMP180;2808;51.240;6.794;2023-02-28T11:39:56;102515.00;;;3.50
5571;BMP180;2808;51.240;6.794;2023-02-28T11:42:44;102541.00;;;3.70
5571;BMP180;2808;51.240;6.794;2023-02-28T11:45:22;102519.00;;;3.70
5571;BMP180;2808;51.240;6.794;2023-02-28T11:48:04;102538.00;;;3.70
5571;BMP180;2808;51.240;6.794;2023-02-28T11:50:46;102536.00;;;3.70
5571;BMP180;2808;51.240;6.794;2023-02-28T11:53:25;102548.00;;;3.70
5571;BMP180;2808;51.240;6.794;2023-02-28T11:56:01;102527.00;;;3.60
5571;BMP180;2808;51.240;6.794;2023-02-28T11:58:48;102525.00;;;3.80
5571;BMP180;2808;51.240;6.794;2023-02-28T12:01:32;102518.00;;;3.80
5571;BMP180;2808;51.240;6.794;2023-02-28T12:04:14;102518.00;;;3.90
5571;BMP180;2808;51.240;6.794;2023-02-28T12:06:48;102533.00;;;3.90
5571;BMP180;2808;51.240;6.794;2023-02-28T12:12:22;102523.00;;;3.80
5571;BMP180;2808;51.240;6.794;2023-02-28T12:17:54;102517.00;;;4.00
5571;BMP180;2808;51.240;6.794;2023-02-28T12:20:31;102508.00;;;4.00
5571;BMP180;2808;51.240;6.794;2023-02-28T12:23:17;102501.00;;;3.90
5571;BMP180;2808;51.240;6.794;2023-02-28T12:26:06;102505.00;;;3.90
5571;BMP180;2808;51.240;6.794;2023-02-28T12:28:40;102500.00;;;3.90
5571;BMP180;2808;51.240;6.794;2023-02-28T12:31:11;102502.00;;;3.90
5571;BMP180;2808;51.240;6.794;2023-02-28T12:33:45;102489.00;;;3.90
5571;BMP180;2808;51.240;6.794;2023-02-28T12:36:16;102483.00;;;4.00
5571;BMP180;2808;51.240;6.794;2023-02-28T12:38:50;102514.00;;;4.10
5571;BMP180;2808;51.240;6.794;2023-02-28T12:41:34;102484.00;;;4.00
5571;BMP180;2808;51.240;6.794;2023-02-28T12:44:07;102477.00;;;3.90
5571;BMP180;2808;51.240;6.794;2023-02-28T12:46:41;102478.00;;;4.00
5571;BMP180;2808;51.240;6.794;2023-02-28T12:49:15;102473.00;;;4.00
5571;BMP180;2808;51.240;6.794;2023-02-28T12:51:44;102478.00;;;3.90
5571;BMP180;2808;51.240;6.794;2023-02-28T12:54:18;102469.00;;;3.90
5571;BMP180;2808;51.240;6.794;2023-02-28T12:56:50;102461.00;;;3.90
5571;BMP180;2808;51.240;6.794;2023-02-28T12:59:25;102465.00;;;4.00
5571;BMP180;2808;51.240;6.794;2023-02-28T13:05:34;102458.00;;;4.00
5571;BMP180;2808;51.240;6.794;2023-02-28T13:11:06;102431.00;;;4.10
5571;BMP180;2808;51.240;6.794;2023-02-28T13:13:34;102429.00;;;4.10
5571;BMP180;2808;51.240;6.794;2023-02-28T13:16:06;102426.00;;;4.20
5571;BMP180;2808;51.240;6.794;2023-02-28T13:18:37;102427.00;;;4.30
5571;BMP180;2808;51.240;6.794;2023-02-28T13:21:10;102426.00;;;4.40
5571;BMP180;2808;51.240;6.794;2023-02-28T13:24:00;102419.00;;;4.50
5571;BMP180;2808;51.240;6.794;2023-02-28T13:33:26;102415.00;;;4.40
5571;BMP180;2808;51.240;6.794;2023-02-28T13:39:54;102414.00;;;4.30
5571;BMP180;2808;51.240;6.794;2023-02-28T13:42:55;102414.00;;;4.40
5571;BMP180;2808;51.240;6.794;2023-02-28T13:46:07;102418.00;;;4.50
5571;BMP180;2808;51.240;6.794;2023-02-28T13:52:10;102414.00;;;4.60
5571;BMP180;2808;51.240;6.794;2023-02-28T13:55:13;102414.00;;;4.60
5571;BMP180;2808;51.240;6.794;2023-02-28T13:57:58;102406.00;;;4.60
5571;BMP180;2808;51.240;6.794;2023-02-28T14:00:46;102413.00;;;4.70
5571;BMP180;2808;51.240;6.794;2023-02-28T14:03:32;102416.00;;;4.70
5571;BMP180;2808;51.240;6.794;2023-02-28T14:06:15;102401.00;;;4.70
5571;BMP180;2808;51.240;6.794;2023-02-28T14:08:52;102389.00;;;4.60
5571;BMP180;2808;51.240;6.794;2023-02-28T14:11:31;102402.00;;;4.50
5571;BMP180;2808;51.240;6.794;2023-02-28T14:13:59;102384.00;;;4.50
5571;BMP180;2808;51.240;6.794;2023-02-28T14:16:39;102385.00;;;4.60
5571;BMP180;2808;51.240;6.794;2023-02-28T14:19:15;102390.00;;;4.70
5571;BMP180;2808;51.240;6.794;2023-02-28T14:21:56;102386.00;;;4.70
5571;BMP180;2808;51.240;6.794;2023-02-28T14:24:55;102384.00;;;4.60
5571;BMP180;2808;51.240;6.794;2023-02-28T14:27:35;102374.00;;;4.60
5571;BMP180;2808;51.240;6.794;2023-02-28T14:33:25;102390.00;;;4.80
5571;BMP180;2808;51.240;6.794;2023-02-28T14:36:12;102391.00;;;4.80
5571;BMP180;2808;51.240;6.794;2023-02-28T14:38:45;102381.00;;;4.80
5571;BMP180;2808;51.240;6.794;2023-02-28T14:41:21;102381.00;;;4.90
5571;BMP180;2808;51.240;6.794;2023-02-28T14:43:55;102377.00;;;4.90
5571;BMP180;2808;51.240;6.794;2023-02-28T14:46:26;102374.00;;;4.90
5571;BMP180;2808;51.240;6.794;2023-02-28T14:48:54;102368.00;;;4.90
5571;BMP180;2808;51.240;6.794;2023-02-28T14:51:23;102382.00;;;5.00
5571;BMP180;2808;51.240;6.794;2023-02-28T14:53:56;102385.00;;;4.90
5571;BMP180;2808;51.240;6.794;2023-02-28T14:56:27;102374.00;;;4.90
5571;BMP180;2808;51.240;6.794;2023-02-28T14:58:59;102381.00;;;4.80
5571;BMP180;2808;51.240;6.794;2023-02-28T15:01:27;102369.00;;;4.80
5571;BMP180;2808;51.240;6.794;2023-02-28T15:04:00;102365.00;;;4.80
5571;BMP180;2808;51.240;6.794;2023-02-28T15:06:29;102360.00;;;4.80
5571;BMP180;2808;51.240;6.794;2023-02-28T15:09:17;102370.00;;;4.80
5571;BMP180;2808;51.240;6.794;2023-02-28T15:11:47;102372.00;;;4.90
5571;BMP180;2808;51.240;6.794;2023-02-28T15:14:19;102366.00;;;4.90
5571;BMP180;2808;51.240;6.794;2023-02-28T15:16:51;102366.00;;;4.80
5571;BMP180;2808;51.240;6.794;2023-02-28T15:19:23;102381.00;;;4.90
5571;BMP180;2808;51.240;6.794;2023-02-28T15:21:56;102374.00;;;4.80
5571;BMP180;2808;51.240;6.794;2023-02-28T15:24:33;102365.00;;;4.80
5571;BMP180;2808;51.240;6.794;2023-02-28T15:27:05;102367.00;;;4.80
5571;BMP180;2808;51.240;6.794;2023-02-28T15:29:43;102365.00;;;4.80
5571;BMP180;2808;51.240;6.794;2023-02-28T15:32:24;102362.00;;;4.80
5571;BMP180;2808;51.240;6.794;2023-02-28T15:34:52;102357.00;;;4.80
5571;BMP180;2808;51.240;6.794;2023-02-28T15:37:39;102357.00;;;4.80
5571;BMP180;2808;51.240;6.794;2023-02-28T15:40:23;102366.00;;;4.80
5571;BMP180;2808;51.240;6.794;2023-02-28T15:43:05;102381.00;;;4.80
5571;BMP180;2808;51.240;6.794;2023-02-28T15:45:48;102361.00;;;4.80